createdAt,value
2017-10-12T00:01:48.511Z,8.38
2017-10-12T00:04:16.827Z,7.16
2017-10-12T00:06:45.175Z,7.06
2017-10-12T00:09:13.495Z,8.24
2017-10-12T00:11:41.871Z,7.76
2017-10-12T00:14:10.179Z,7.90
2017-10-12T00:16:38.590Z,18.18
2017-10-12T00:19:06.899Z,7.32
2017-10-12T00:21:35.290Z,7.20
2017-10-12T00:24:03.603Z,14.26
2017-10-12T00:26:32.879Z,9.20
2017-10-12T00:29:01.271Z,9.82
2017-10-12T00:31:29.608Z,10.00
2017-10-12T00:33:57.943Z,9.34
2017-10-12T00:36:26.311Z,8.18
2017-10-12T00:38:54.639Z,9.02
2017-10-12T00:41:23.006Z,6.60
2017-10-12T00:43:51.336Z,8.30
2017-10-12T00:46:19.657Z,8.14
2017-10-12T00:48:47.986Z,7.36
2017-10-12T00:51:16.323Z,10.26
2017-10-12T00:53:44.662Z,10.58
2017-10-12T00:56:14.407Z,10.38
2017-10-12T00:58:43.714Z,7.98
2017-10-12T01:01:12.051Z,11.12
2017-10-12T01:03:40.355Z,8.12
2017-10-12T01:06:08.679Z,6.90
2017-10-12T01:08:36.982Z,7.42
2017-10-12T01:11:05.363Z,6.82
2017-10-12T01:13:33.671Z,8.12
2017-10-12T01:16:02.847Z,7.82
2017-10-12T01:18:31.589Z,6.46
2017-10-12T01:20:59.928Z,6.80
2017-10-12T01:23:28.238Z,8.42
2017-10-12T01:25:56.679Z,7.40
2017-10-12T01:28:25.007Z,7.44
2017-10-12T01:30:53.379Z,6.86
2017-10-12T01:33:21.712Z,7.24
2017-10-12T01:35:50.092Z,14.68
2017-10-12T01:38:18.423Z,6.90
2017-10-12T01:40:46.788Z,6.90
2017-10-12T01:43:15.106Z,6.98
2017-10-12T01:45:43.487Z,7.14
2017-10-12T01:48:11.840Z,9.44
2017-10-12T01:50:40.147Z,6.72
2017-10-12T01:53:08.502Z,7.06
2017-10-12T01:55:36.066Z,8.60
2017-10-12T01:58:04.391Z,6.72
2017-10-12T02:00:33.739Z,8.14
2017-10-12T02:03:02.068Z,6.20
2017-10-12T02:05:30.400Z,5.60
2017-10-12T02:07:58.726Z,8.04
2017-10-12T02:10:27.051Z,8.08
2017-10-12T02:12:56.342Z,6.26
2017-10-12T02:15:24.686Z,7.00
2017-10-12T02:17:53.004Z,5.94
2017-10-12T02:20:21.308Z,6.14
2017-10-12T02:22:49.677Z,6.06
2017-10-12T02:25:17.982Z,5.98
2017-10-12T02:27:47.412Z,6.72
2017-10-12T02:30:15.719Z,6.14
2017-10-12T02:32:45.550Z,6.00
2017-10-12T02:35:14.972Z,6.60
2017-10-12T02:37:44.335Z,6.08
2017-10-12T02:40:13.722Z,6.06
2017-10-12T02:42:42.059Z,5.44
2017-10-12T02:45:10.371Z,5.84
2017-10-12T02:47:38.715Z,5.82
2017-10-12T02:50:07.023Z,5.00
2017-10-12T02:52:35.464Z,6.12
2017-10-12T02:55:03.808Z,5.28
2017-10-12T02:57:32.183Z,5.62
2017-10-12T03:00:00.509Z,5.50
2017-10-12T03:02:28.872Z,5.52
2017-10-12T03:04:57.200Z,5.46
2017-10-12T03:07:25.578Z,5.88
2017-10-12T03:09:54.003Z,5.50
2017-10-12T03:12:22.308Z,5.22
2017-10-12T03:14:50.720Z,4.88
2017-10-12T03:17:19.028Z,5.38
2017-10-12T03:19:47.330Z,5.08
2017-10-12T03:22:15.657Z,5.76
2017-10-12T03:24:44.692Z,5.60
2017-10-12T03:27:13.991Z,5.32
2017-10-12T03:29:44.311Z,4.88
2017-10-12T03:32:12.681Z,4.72
2017-10-12T03:34:41.104Z,5.16
2017-10-12T03:37:09.439Z,4.60
2017-10-12T03:39:37.807Z,4.88
2017-10-12T03:42:06.172Z,4.32
2017-10-12T03:44:34.516Z,4.50
2017-10-12T03:47:04.007Z,4.18
2017-10-12T03:49:33.395Z,4.62
2017-10-12T03:52:02.947Z,4.28
2017-10-12T03:54:32.415Z,4.90
2017-10-12T03:57:00.714Z,4.26
2017-10-12T03:59:30.085Z,4.20
2017-10-12T04:01:58.391Z,4.40
2017-10-12T04:04:26.786Z,4.56
2017-10-12T04:06:55.095Z,4.80
2017-10-12T04:09:24.437Z,3.70
2017-10-12T04:11:52.738Z,3.56
2017-10-12T04:14:21.104Z,4.74
2017-10-12T04:16:49.427Z,4.06
2017-10-12T04:19:18.736Z,3.64
2017-10-12T04:21:47.077Z,3.60
2017-10-12T04:24:15.427Z,4.38
2017-10-12T04:26:44.735Z,3.34
2017-10-12T04:29:14.279Z,3.10
2017-10-12T04:31:42.658Z,3.04
2017-10-12T04:34:11.024Z,3.54
2017-10-12T04:36:39.362Z,3.12
2017-10-12T04:39:07.743Z,3.10
2017-10-12T04:41:36.047Z,3.16
2017-10-12T04:44:04.484Z,3.30
2017-10-12T04:46:33.926Z,3.74
2017-10-12T04:49:03.365Z,3.24
2017-10-12T04:51:33.317Z,3.62
2017-10-12T04:54:02.885Z,3.34
2017-10-12T04:56:31.628Z,5.58
2017-10-12T04:58:59.960Z,3.90
2017-10-12T05:01:27.496Z,4.34
2017-10-12T05:03:55.098Z,4.20
2017-10-12T05:06:23.402Z,3.92
2017-10-12T05:08:51.720Z,4.10
2017-10-12T05:11:20.039Z,4.30
2017-10-12T05:13:48.344Z,4.88
2017-10-12T05:16:15.910Z,4.58
2017-10-12T05:18:45.191Z,4.66
2017-10-12T05:21:13.523Z,4.88
2017-10-12T05:23:41.167Z,4.32
2017-10-12T05:26:09.467Z,5.32
2017-10-12T05:28:37.915Z,5.38
2017-10-12T05:31:06.227Z,5.10
2017-10-12T05:33:34.619Z,4.54
2017-10-12T05:36:03.671Z,4.90
2017-10-12T05:38:32.873Z,12.88
2017-10-12T05:41:01.584Z,7.84
2017-10-12T05:43:29.949Z,4.70
2017-10-12T05:45:58.275Z,4.76
2017-10-12T05:48:26.575Z,6.06
2017-10-12T05:50:54.903Z,4.80
2017-10-12T05:53:23.266Z,4.60
2017-10-12T05:55:51.600Z,4.76
2017-10-12T05:58:19.966Z,5.48
2017-10-12T06:00:48.280Z,6.96
2017-10-12T06:03:16.573Z,5.30
2017-10-12T06:05:44.908Z,5.84
2017-10-12T06:08:13.206Z,5.72
2017-10-12T06:10:41.503Z,6.18
2017-10-12T06:13:09.816Z,8.02
2017-10-12T06:15:38.117Z,6.68
2017-10-12T06:18:06.429Z,5.98
2017-10-12T06:20:34.722Z,5.68
2017-10-12T06:23:03.077Z,10.58
2017-10-12T06:25:31.368Z,5.06
2017-10-12T06:27:59.681Z,4.78
2017-10-12T06:30:27.977Z,5.30
2017-10-12T06:32:56.302Z,17.46
2017-10-12T06:35:24.610Z,5.52
2017-10-12T06:37:52.905Z,5.00
2017-10-12T06:40:21.264Z,5.42
2017-10-12T06:42:49.565Z,6.44
2017-10-12T06:45:17.882Z,7.32
2017-10-12T06:47:46.170Z,5.00
2017-10-12T06:50:14.480Z,5.58
2017-10-12T06:52:42.769Z,6.50
2017-10-12T06:55:11.103Z,4.88
2017-10-12T06:57:39.397Z,5.84
2017-10-12T07:00:07.684Z,4.94
2017-10-12T07:02:36.006Z,7.80
2017-10-12T07:05:04.296Z,4.32
2017-10-12T07:07:32.609Z,5.40
2017-10-12T07:10:00.912Z,6.76
2017-10-12T07:12:31.195Z,6.04
2017-10-12T07:14:59.489Z,4.58
2017-10-12T07:17:27.780Z,6.24
2017-10-12T07:19:56.097Z,5.82
2017-10-12T07:22:24.392Z,4.36
2017-10-12T07:24:52.709Z,4.58
2017-10-12T07:27:21.008Z,4.62
2017-10-12T07:29:49.329Z,5.02
2017-10-12T07:32:16.853Z,5.06
2017-10-12T07:34:45.188Z,5.46
2017-10-12T07:37:13.482Z,4.16
2017-10-12T07:39:41.768Z,4.72
2017-10-12T07:42:10.085Z,3.92
2017-10-12T07:44:38.377Z,4.62
2017-10-12T07:47:05.933Z,3.84
2017-10-12T07:49:34.231Z,3.90
2017-10-12T07:52:02.557Z,5.84
2017-10-12T07:54:30.085Z,6.10
2017-10-12T07:56:58.401Z,5.40
2017-10-12T07:59:26.690Z,6.10
2017-10-12T08:01:55.017Z,7.28
2017-10-12T08:04:23.310Z,5.88
2017-10-12T08:06:51.610Z,4.92
2017-10-12T08:09:19.932Z,5.36
2017-10-12T08:11:48.234Z,8.20
2017-10-12T08:14:16.553Z,5.58
2017-10-12T08:16:44.840Z,4.30
2017-10-12T08:19:13.155Z,4.68
2017-10-12T08:21:41.454Z,3.50
2017-10-12T08:24:09.765Z,3.66
2017-10-12T08:26:38.054Z,3.48
2017-10-12T08:29:06.386Z,4.20
2017-10-12T08:31:34.680Z,3.78
2017-10-12T08:34:02.989Z,5.02
2017-10-12T08:36:31.323Z,6.26
2017-10-12T08:38:59.649Z,5.00
2017-10-12T08:41:27.961Z,4.62
2017-10-12T08:43:56.250Z,4.40
2017-10-12T08:46:24.570Z,4.72
2017-10-12T08:48:52.860Z,4.18
2017-10-12T08:51:21.181Z,3.52
2017-10-12T08:53:49.464Z,4.38
2017-10-12T08:56:17.797Z,4.14
2017-10-12T08:58:46.101Z,3.34
2017-10-12T09:01:14.397Z,3.16
2017-10-12T09:03:42.708Z,3.40
2017-10-12T09:06:10.238Z,4.02
2017-10-12T09:08:38.544Z,3.04
2017-10-12T09:11:06.833Z,3.32
2017-10-12T09:13:35.155Z,5.20
2017-10-12T09:16:04.441Z,2.88
2017-10-12T09:18:32.761Z,3.36
2017-10-12T09:21:01.052Z,3.06
2017-10-12T09:23:29.376Z,3.62
2017-10-12T09:25:57.664Z,2.90
2017-10-12T09:28:25.953Z,3.48
2017-10-12T09:30:54.257Z,3.24
2017-10-12T09:33:22.677Z,3.54
2017-10-12T09:35:50.985Z,5.00
2017-10-12T09:38:19.281Z,3.34
2017-10-12T09:40:47.596Z,3.40
2017-10-12T09:43:15.901Z,4.06
2017-10-12T09:45:44.209Z,3.34
2017-10-12T09:48:12.500Z,3.52
2017-10-12T09:50:40.841Z,2.52
2017-10-12T09:53:09.148Z,3.10
2017-10-12T09:55:37.436Z,3.48
2017-10-12T09:58:05.766Z,3.66
2017-10-12T10:00:34.993Z,3.40
2017-10-12T10:03:03.310Z,3.92
2017-10-12T10:05:31.625Z,2.96
2017-10-12T10:07:59.935Z,3.20
2017-10-12T10:10:28.232Z,3.48
2017-10-12T10:12:56.556Z,3.32
2017-10-12T10:15:24.845Z,3.38
2017-10-12T10:17:53.131Z,2.94
2017-10-12T10:20:21.448Z,3.10
2017-10-12T10:22:49.733Z,2.92
2017-10-12T10:25:18.037Z,3.22
2017-10-12T10:27:46.328Z,2.80
2017-10-12T10:30:14.638Z,3.14
2017-10-12T10:32:42.930Z,3.50
2017-10-12T10:35:11.255Z,3.16
2017-10-12T10:37:38.780Z,3.14
2017-10-12T10:40:07.069Z,2.74
2017-10-12T10:42:35.382Z,2.98
2017-10-12T10:45:03.677Z,2.28
2017-10-12T10:47:31.228Z,2.74
2017-10-12T10:49:59.514Z,2.94
2017-10-12T10:52:27.825Z,2.86
2017-10-12T10:54:55.349Z,3.32
2017-10-12T10:57:23.683Z,2.74
2017-10-12T10:59:51.969Z,2.70
2017-10-12T11:02:20.249Z,3.06
2017-10-12T11:04:48.569Z,2.92
2017-10-12T11:07:16.858Z,3.36
2017-10-12T11:09:45.180Z,3.00
2017-10-12T11:12:13.469Z,3.28
2017-10-12T11:14:41.790Z,3.52
2017-10-12T11:17:10.082Z,2.88
2017-10-12T11:19:38.385Z,3.06
2017-10-12T11:22:06.688Z,3.26
2017-10-12T11:24:35.021Z,2.42
2017-10-12T11:27:03.309Z,4.62
2017-10-12T11:29:31.639Z,2.54
2017-10-12T11:31:59.957Z,2.72
2017-10-12T11:34:28.252Z,3.32
2017-10-12T11:36:56.653Z,2.96
2017-10-12T11:39:24.949Z,3.44
2017-10-12T11:41:53.265Z,3.20
2017-10-12T11:44:21.552Z,3.02
2017-10-12T11:46:50.066Z,3.68
2017-10-12T11:49:18.356Z,2.88
2017-10-12T11:51:46.689Z,2.72
2017-10-12T11:54:14.980Z,3.40
2017-10-12T11:56:43.264Z,3.22
2017-10-12T11:59:11.577Z,2.82
2017-10-12T12:01:39.867Z,4.86
2017-10-12T12:04:08.181Z,3.16
2017-10-12T12:06:36.468Z,3.42
2017-10-12T12:09:04.813Z,3.04
2017-10-12T12:11:33.222Z,3.66
2017-10-12T12:14:02.121Z,3.30
2017-10-12T12:16:30.418Z,3.52
2017-10-12T12:18:58.745Z,2.82
2017-10-12T12:21:27.039Z,3.34
2017-10-12T12:23:55.328Z,3.20
2017-10-12T12:26:23.637Z,3.32
2017-10-12T12:28:51.928Z,3.38
2017-10-12T12:31:20.242Z,3.28
2017-10-12T12:33:48.541Z,3.48
2017-10-12T12:36:16.980Z,3.32
2017-10-12T12:38:45.264Z,3.10
2017-10-12T12:41:13.574Z,3.58
2017-10-12T12:43:41.865Z,3.14
2017-10-12T12:46:10.203Z,3.72
2017-10-12T12:48:38.499Z,3.54
2017-10-12T12:51:06.802Z,3.48
2017-10-12T12:53:35.119Z,3.86
2017-10-12T12:56:03.412Z,3.32
2017-10-12T12:58:31.736Z,3.98
2017-10-12T13:01:00.030Z,3.26
2017-10-12T13:03:28.337Z,4.60
2017-10-12T13:05:56.637Z,3.42
2017-10-12T13:08:24.951Z,4.24
2017-10-12T13:10:53.236Z,4.68
2017-10-12T13:13:21.569Z,3.58
2017-10-12T13:15:49.868Z,5.80
2017-10-12T13:18:17.397Z,4.40
2017-10-12T13:20:45.717Z,4.40
2017-10-12T13:23:14.001Z,3.84
2017-10-12T13:25:42.304Z,4.60
2017-10-12T13:28:10.593Z,4.30
2017-10-12T13:30:38.902Z,3.80
2017-10-12T13:33:07.190Z,3.14
2017-10-12T13:35:35.521Z,4.72
2017-10-12T13:38:03.817Z,5.56
2017-10-12T13:40:32.153Z,7.80
2017-10-12T13:43:00.441Z,4.66
2017-10-12T13:45:28.733Z,5.64
2017-10-12T13:47:57.049Z,3.74
2017-10-12T13:50:25.340Z,4.20
2017-10-12T13:52:53.661Z,3.76
2017-10-12T13:55:21.960Z,4.42
2017-10-12T13:57:50.278Z,3.70
2017-10-12T14:00:18.577Z,3.62
2017-10-12T14:02:46.893Z,6.88
2017-10-12T14:05:15.194Z,35.02
2017-10-12T14:07:43.513Z,12.52
2017-10-12T14:10:11.825Z,6.04
2017-10-12T14:12:40.120Z,10.80
2017-10-12T14:15:08.448Z,5.04
2017-10-12T14:17:36.742Z,4.40
2017-10-12T14:20:05.065Z,4.10
2017-10-12T14:22:33.366Z,3.98
2017-10-12T14:25:01.718Z,4.54
2017-10-12T14:27:30.017Z,4.38
2017-10-12T14:29:58.301Z,4.40
2017-10-12T14:32:26.651Z,3.30
2017-10-12T14:34:54.944Z,4.34
2017-10-12T14:37:23.256Z,4.12
2017-10-12T14:39:51.545Z,5.04
2017-10-12T14:42:19.865Z,5.04
2017-10-12T14:44:48.166Z,5.02
2017-10-12T14:47:16.505Z,4.48
2017-10-12T14:49:44.796Z,4.80
2017-10-12T14:52:12.352Z,4.10
2017-10-12T14:54:40.645Z,4.50
2017-10-12T14:57:08.933Z,5.60
2017-10-12T14:59:37.244Z,7.74
2017-10-12T15:02:05.538Z,5.48
2017-10-12T15:04:33.877Z,4.42
2017-10-12T15:07:02.185Z,4.48
2017-10-12T15:09:33.820Z,4.04
2017-10-12T15:12:02.556Z,4.40
2017-10-12T15:14:30.881Z,3.84
2017-10-12T15:16:59.176Z,4.14
2017-10-12T15:19:27.514Z,4.56
2017-10-12T15:21:55.810Z,4.00
2017-10-12T15:24:24.118Z,4.54
2017-10-12T15:26:52.438Z,3.50
2017-10-12T15:29:20.729Z,3.50
2017-10-12T15:31:49.047Z,4.20
2017-10-12T15:34:17.352Z,3.80
2017-10-12T15:36:45.696Z,3.60
2017-10-12T15:39:14.009Z,5.80
2017-10-12T15:41:42.320Z,4.10
2017-10-12T15:44:10.614Z,4.52
2017-10-12T15:46:38.940Z,4.40
2017-10-12T15:49:06.572Z,4.10
2017-10-12T15:51:34.914Z,4.40
2017-10-12T15:54:03.279Z,4.02
2017-10-12T15:56:31.598Z,4.70
2017-10-12T15:58:59.917Z,3.92
2017-10-12T16:01:28.201Z,4.30
2017-10-12T16:03:56.518Z,4.38
2017-10-12T16:06:24.810Z,4.02
2017-10-12T16:08:53.112Z,4.08
2017-10-12T16:11:21.432Z,4.84
2017-10-12T16:13:49.771Z,3.92
2017-10-12T16:16:18.074Z,4.18
2017-10-12T16:18:46.403Z,3.90
2017-10-12T16:21:14.708Z,5.00
2017-10-12T16:23:42.996Z,4.94
2017-10-12T16:26:10.550Z,5.26
2017-10-12T16:28:38.841Z,4.88
2017-10-12T16:31:07.166Z,5.62
2017-10-12T16:33:35.469Z,4.86
2017-10-12T16:36:03.834Z,4.74
2017-10-12T16:38:32.184Z,5.52
2017-10-12T16:41:00.594Z,4.60
2017-10-12T16:43:28.945Z,5.42
2017-10-12T16:45:57.238Z,4.18
2017-10-12T16:48:25.561Z,4.48
2017-10-12T16:50:53.868Z,5.48
2017-10-12T16:53:22.201Z,4.88
2017-10-12T16:55:50.505Z,6.02
2017-10-12T16:58:18.080Z,5.26
2017-10-12T17:00:46.387Z,6.36
2017-10-12T17:03:14.733Z,4.58
2017-10-12T17:05:42.265Z,5.32
2017-10-12T17:08:10.732Z,6.84
2017-10-12T17:10:39.161Z,7.90
2017-10-12T17:13:07.481Z,6.38
2017-10-12T17:15:35.805Z,5.18
2017-10-12T17:18:04.114Z,4.70
2017-10-12T17:20:32.549Z,5.58
2017-10-12T17:23:00.862Z,7.12
2017-10-12T17:25:29.190Z,6.24
2017-10-12T17:27:57.490Z,5.50
2017-10-12T17:30:25.842Z,6.12
2017-10-12T17:32:54.141Z,5.48
2017-10-12T17:35:23.397Z,10.24
2017-10-12T17:37:51.721Z,7.76
2017-10-12T17:40:20.021Z,6.00
2017-10-12T17:42:48.336Z,5.66
2017-10-12T17:45:16.636Z,7.70
2017-10-12T17:47:44.957Z,9.42
2017-10-12T17:50:13.253Z,7.42
2017-10-12T17:52:40.805Z,6.80
2017-10-12T17:55:09.105Z,6.60
2017-10-12T17:57:37.441Z,5.96
2017-10-12T18:00:05.748Z,5.94
2017-10-12T18:02:34.041Z,6.70
2017-10-12T18:05:02.374Z,8.10
2017-10-12T18:07:30.693Z,11.50
2017-10-12T18:09:59.020Z,14.30
2017-10-12T18:12:27.314Z,10.54
2017-10-12T18:14:55.629Z,10.94
2017-10-12T18:17:23.927Z,8.44
2017-10-12T18:19:52.246Z,25.82
2017-10-12T18:22:20.554Z,27.12
2017-10-12T18:24:48.893Z,16.80
2017-10-12T18:27:17.189Z,21.90
2017-10-12T18:29:45.484Z,61.06
2017-10-12T18:32:13.815Z,39.06
2017-10-12T18:34:42.190Z,50.28
2017-10-12T18:37:10.498Z,59.76
2017-10-12T18:39:38.790Z,25.20
2017-10-12T18:42:06.334Z,7.10
2017-10-12T18:44:34.829Z,8.64
2017-10-12T18:47:03.170Z,15.64
2017-10-12T18:49:31.472Z,42.66
2017-10-12T18:51:59.817Z,39.24
2017-10-12T18:54:28.204Z,42.38
2017-10-12T18:56:56.496Z,46.34
2017-10-12T18:59:24.813Z,29.68
2017-10-12T19:01:53.134Z,26.74
2017-10-12T19:04:21.472Z,24.40
2017-10-12T19:06:49.800Z,27.24
2017-10-12T19:09:18.126Z,52.96
2017-10-12T19:11:46.621Z,39.12
2017-10-12T19:14:14.982Z,36.34
2017-10-12T19:16:43.292Z,56.86
2017-10-12T19:19:12.657Z,13.26
2017-10-12T19:21:41.053Z,32.54
2017-10-12T19:24:09.361Z,24.04
2017-10-12T19:26:37.669Z,11.40
2017-10-12T19:29:05.213Z,13.28
2017-10-12T19:31:33.541Z,13.20
2017-10-12T19:34:01.838Z,14.90
2017-10-12T19:36:30.151Z,13.36
2017-10-12T19:38:58.680Z,12.34
2017-10-12T19:41:26.997Z,12.16
2017-10-12T19:43:55.293Z,10.04
2017-10-12T19:46:23.655Z,10.56
2017-10-12T19:48:51.949Z,8.12
2017-10-12T19:51:27.208Z,10.00
2017-10-12T19:53:48.597Z,7.92
2017-10-12T19:56:16.885Z,7.98
2017-10-12T20:01:13.525Z,9.62
2017-10-12T20:03:41.829Z,9.46
2017-10-12T20:06:10.125Z,7.92
2017-10-12T20:11:06.833Z,9.24
2017-10-12T20:13:35.952Z,10.74
2017-10-12T20:16:03.584Z,10.18
2017-10-12T20:18:32.047Z,9.36
2017-10-12T20:21:00.356Z,9.90
2017-10-12T20:23:28.649Z,9.06
2017-10-12T20:25:56.965Z,10.00
2017-10-12T20:28:25.262Z,15.12
2017-10-12T20:30:53.572Z,10.94
2017-10-12T20:33:21.860Z,15.00
2017-10-12T20:35:50.177Z,14.02
2017-10-12T20:38:18.468Z,15.58
2017-10-12T20:40:46.794Z,13.94
2017-10-12T20:43:15.085Z,13.84
2017-10-12T20:45:43.378Z,13.10
2017-10-12T20:48:11.694Z,15.24
2017-10-12T20:50:39.982Z,13.28
2017-10-12T20:53:08.302Z,13.30
2017-10-12T20:55:36.595Z,12.76
2017-10-12T20:58:04.908Z,12.90
2017-10-12T21:00:33.208Z,11.54
2017-10-12T21:03:01.527Z,11.24
2017-10-12T21:05:29.822Z,11.74
2017-10-12T21:07:58.158Z,11.08
2017-10-12T21:10:26.449Z,11.82
2017-10-12T21:12:54.745Z,11.76
2017-10-12T21:15:23.061Z,12.00
2017-10-12T21:17:51.362Z,13.12
2017-10-12T21:20:19.676Z,11.52
2017-10-12T21:22:47.969Z,11.18
2017-10-12T21:25:16.285Z,9.90
2017-10-12T21:27:44.573Z,11.12
2017-10-12T21:30:12.897Z,9.44
2017-10-12T21:32:41.194Z,10.76
2017-10-12T21:35:09.682Z,17.42
2017-10-12T21:37:38.022Z,10.90
2017-10-12T21:40:06.324Z,11.40
2017-10-12T21:42:34.653Z,10.74
2017-10-12T21:45:02.950Z,10.42
2017-10-12T21:47:31.261Z,9.28
2017-10-12T21:49:59.556Z,8.90
2017-10-12T21:52:27.872Z,9.02
2017-10-12T21:54:56.154Z,8.76
2017-10-12T21:57:24.502Z,11.82
2017-10-12T21:59:52.788Z,9.96
2017-10-12T22:02:21.084Z,10.46
2017-10-12T22:04:49.394Z,8.62
2017-10-12T22:07:17.689Z,9.66
2017-10-12T22:09:46.118Z,9.00
2017-10-12T22:12:14.408Z,66.64
2017-10-12T22:14:42.724Z,37.66
2017-10-12T22:17:11.022Z,19.58
2017-10-12T22:19:39.337Z,9.26
2017-10-12T22:22:07.712Z,8.42
2017-10-12T22:24:36.061Z,10.40
2017-10-12T22:27:03.588Z,22.60
2017-10-12T22:29:31.873Z,9.82
2017-10-12T22:32:00.193Z,15.28
2017-10-12T22:34:28.490Z,40.30
2017-10-12T22:36:56.808Z,10.22
2017-10-12T22:39:25.092Z,9.98
2017-10-12T22:41:53.400Z,8.72
2017-10-12T22:44:20.929Z,10.22
2017-10-12T22:46:49.245Z,25.22
2017-10-12T22:49:17.543Z,20.80
2017-10-12T22:51:45.861Z,16.66
2017-10-12T22:54:14.173Z,8.36
2017-10-12T22:56:42.453Z,8.34
2017-10-12T22:59:10.765Z,8.56
2017-10-12T23:01:40.175Z,7.74
2017-10-12T23:04:08.536Z,14.98
2017-10-12T23:06:36.832Z,9.34
2017-10-12T23:09:05.149Z,8.86
2017-10-12T23:11:33.441Z,8.50
2017-10-12T23:14:01.754Z,8.60
2017-10-12T23:16:30.062Z,8.02
2017-10-12T23:18:58.354Z,8.42
2017-10-12T23:21:26.721Z,8.46
2017-10-12T23:23:55.025Z,7.80
2017-10-12T23:26:23.397Z,8.42
2017-10-12T23:28:51.693Z,6.96
2017-10-12T23:31:20.004Z,7.56
2017-10-12T23:33:48.292Z,7.76
2017-10-12T23:36:16.621Z,7.20
2017-10-12T23:38:44.905Z,7.08
2017-10-12T23:41:13.193Z,6.60
2017-10-12T23:43:41.501Z,6.78
2017-10-12T23:46:09.801Z,7.85
2017-10-12T23:48:38.117Z,6.78
2017-10-12T23:51:06.413Z,6.12
2017-10-12T23:53:34.730Z,7.24
2017-10-12T23:56:03.030Z,6.32
2017-10-12T23:58:31.334Z,6.76
